Time;durP1;ratioP1;P1;durP2;ratioP2;P2;SDS_P1;SDS_P2;PMS_P1;PMS_P2;Temp;Humidity;BMP_temperature;BMP_pressure;BME280_temperature;BME280_humidity;BME280_pressure;Samples;Min_cycle;Max_cycle;Signal;HPM_P1;HPM_P2
2021/05/22 00:00:56;;;;;;;5.80;1.60;;;;;;;8.82;82.81;99651.41;5033508;28;20184;-74
2021/05/22 00:03:21;;;;;;;6.83;1.80;;;;;;;8.77;83.04;99648.22;5033180;28;20486;-72
2021/05/22 00:05:46;;;;;;;8.07;2.00;;;;;;;8.65;83.77;99644.53;5031917;28;20259;-72
2021/05/22 00:08:12;;;;;;;4.60;1.50;;;;;;;8.70;83.42;99649.56;5032056;28;20226;-73
2021/05/22 00:10:37;;;;;;;4.13;1.60;;;;;;;8.60;83.56;99651.97;5031956;28;20176;-73
2021/05/22 00:13:03;;;;;;;4.97;1.63;;;;;;;8.61;83.42;99643.03;5031762;28;20196;-74
2021/05/22 00:15:29;;;;;;;4.40;1.63;;;;;;;8.68;83.23;99654.13;5015231;28;20187;-73
2021/05/22 00:17:54;;;;;;;7.50;1.43;;;;;;;8.76;82.41;99647.34;5031590;28;20221;-73
2021/05/22 00:20:19;;;;;;;7.77;1.53;;;;;;;8.82;81.79;99655.88;5031531;28;20264;-72
2021/05/22 00:22:45;;;;;;;6.70;1.50;;;;;;;8.80;82.31;99648.00;5031454;28;20188;-73
2021/05/22 00:25:11;;;;;;;4.40;1.50;;;;;;;8.78;82.25;99650.78;5033607;28;20180;-73
2021/05/22 00:27:36;;;;;;;4.07;1.50;;;;;;;8.72;82.69;99648.50;5031476;28;20183;-73
2021/05/22 00:30:04;;;;;;;4.30;1.30;;;;;;;8.70;82.55;99650.41;5031377;28;20195;-73
2021/05/22 00:32:29;;;;;;;3.90;1.43;;;;;;;8.71;82.65;99648.59;5031324;28;20310;-71
2021/05/22 00:34:55;;;;;;;5.83;1.50;;;;;;;8.57;82.60;99640.66;5031625;28;20655;-73
2021/05/22 00:37:20;;;;;;;4.47;1.30;;;;;;;8.61;82.60;99647.50;5031442;28;20203;-73
2021/05/22 00:39:45;;;;;;;2.13;1.43;;;;;;;8.52;82.56;99648.03;5033345;28;20169;-73
2021/05/22 00:42:11;;;;;;;4.33;1.27;;;;;;;8.42;83.36;99642.47;5032847;28;20196;-73
2021/05/22 00:45:10;;;;;;;3.67;1.37;;;;;;;8.33;83.91;99635.03;5033387;28;20173;-74
2021/05/22 00:47:37;;;;;;;5.07;1.57;;;;;;;8.37;83.57;99623.28;5031859;28;20188;-74
2021/05/22 00:50:09;;;;;;;4.17;1.50;;;;;;;8.40;82.97;99629.25;5033483;28;20172;-73
2021/05/22 00:52:35;;;;;;;2.07;1.30;;;;;;;8.44;82.70;99613.97;5031622;28;20704;-73
2021/05/22 00:55:00;;;;;;;2.23;1.10;;;;;;;8.44;82.50;99622.81;5015076;28;20176;-73
2021/05/22 00:57:26;;;;;;;5.63;1.10;;;;;;;8.47;82.28;99611.13;5031263;28;20226;-73
2021/05/22 00:59:52;;;;;;;1.73;0.97;;;;;;;8.52;82.25;99611.66;5035653;28;20258;-74
2021/05/22 01:02:22;;;;;;;1.00;0.90;;;;;;;8.63;81.21;99600.38;5018693;28;20192;-73
2021/05/22 01:04:48;;;;;;;2.57;1.20;;;;;;;8.68;81.10;99590.28;5035191;28;20233;-73
2021/05/22 01:07:13;;;;;;;4.97;1.20;;;;;;;8.82;80.20;99595.56;5035330;28;20180;-74
2021/05/22 01:09:40;;;;;;;1.77;1.20;;;;;;;8.96;79.41;99584.03;5036332;28;20176;-74
2021/05/22 01:12:06;;;;;;;2.13;1.10;;;;;;;9.04;78.12;99571.91;5018208;28;20697;-73
2021/05/22 01:14:50;;;;;;;1.83;0.80;;;;;;;9.15;77.46;99573.00;5034886;28;20209;-72
2021/05/22 01:17:17;;;;;;;3.60;1.00;;;;;;;9.21;77.83;99569.91;5035152;28;20218;-73
2021/05/22 01:19:57;;;;;;;3.60;1.03;;;;;;;9.14;77.75;99571.28;5034804;28;20207;-73
2021/05/22 01:22:24;;;;;;;2.40;1.00;;;;;;;9.14;77.79;99564.16;5018279;28;20188;-74
2021/05/22 01:24:57;;;;;;;1.90;0.90;;;;;;;9.13;77.47;99566.91;5034816;28;20173;-73
2021/05/22 01:27:23;;;;;;;2.23;1.00;;;;;;;9.17;77.33;99563.94;5034738;28;20671;-73
2021/05/22 01:29:49;;;;;;;1.97;0.70;;;;;;;8.95;77.51;99566.34;5035059;28;20172;-73
2021/05/22 01:32:14;;;;;;;1.90;1.10;;;;;;;9.12;77.87;99558.09;5034981;28;20721;-74
2021/05/22 01:34:39;;;;;;;2.93;0.80;;;;;;;9.15;78.25;99562.34;5034907;28;20188;-74
2021/05/22 01:37:05;;;;;;;5.70;1.17;;;;;;;9.15;77.49;99559.69;5034421;28;20540;-72
2021/05/22 01:39:30;;;;;;;3.70;0.90;;;;;;;9.02;77.11;99557.84;5035975;28;20172;-74
2021/05/22 01:41:56;;;;;;;3.70;1.00;;;;;;;8.85;77.55;99576.72;5035578;28;20613;-73
2021/05/22 01:44:22;;;;;;;2.53;1.00;;;;;;;8.81;77.56;99577.88;5034191;28;20238;-73
2021/05/22 01:46:49;;;;;;;1.23;0.80;;;;;;;8.88;77.17;99579.19;5034149;28;20486;-73
2021/05/22 01:49:14;;;;;;;2.60;1.00;;;;;;;8.82;77.77;99582.25;5017538;28;20266;-74
2021/05/22 01:51:40;;;;;;;5.07;1.00;;;;;;;8.77;77.87;99590.53;5035176;28;20549;-73
2021/05/22 01:54:07;;;;;;;2.47;0.70;;;;;;;8.67;78.81;99588.56;5034484;28;20241;-73
2021/05/22 01:56:33;;;;;;;0.70;0.70;;;;;;;8.64;78.69;99580.78;5034443;28;20172;-73
2021/05/22 01:58:59;;;;;;;3.97;1.10;;;;;;;8.58;78.86;99575.88;5034129;28;20627;-73
2021/05/22 02:01:25;;;;;;;1.17;0.83;;;;;;;8.53;80.00;99577.97;5017688;28;20204;-73
2021/05/22 02:03:52;;;;;;;1.73;0.80;;;;;;;8.53;78.61;99585.94;5034074;28;20164;-73
2021/05/22 02:06:23;;;;;;;2.40;0.90;;;;;;;8.48;79.08;99588.03;5037090;28;20228;-73
2021/05/22 02:08:52;;;;;;;2.80;0.80;;;;;;;8.48;79.07;99588.03;5016872;28;20218;-74
2021/05/22 02:11:17;;;;;;;1.20;0.87;;;;;;;8.43;78.80;99580.34;5032934;28;20188;-73
2021/05/22 02:13:44;;;;;;;1.67;0.80;;;;;;;8.49;78.25;99579.09;5033975;28;20200;-73
2021/05/22 02:16:10;;;;;;;2.30;1.07;;;;;;;8.49;78.17;99579.09;5034668;28;20191;-73
2021/05/22 02:18:37;;;;;;;1.30;0.70;;;;;;;8.41;78.57;99571.63;5017515;28;20245;-73
2021/05/22 02:21:03;;;;;;;4.10;1.00;;;;;;;8.38;79.46;99578.00;5036017;28;20168;-74
2021/05/22 02:23:29;;;;;;;4.33;0.90;;;;;;;8.35;78.97;99586.16;5028264;28;20226;-74
2021/05/22 02:25:56;;;;;;;2.03;0.80;;;;;;;8.32;79.14;99575.69;5022436;28;20183;-75
2021/05/22 02:28:22;;;;;;;2.60;1.07;;;;;;;8.32;79.33;99573.03;5040064;28;20221;-74
2021/05/22 02:30:48;;;;;;;2.40;1.00;;;;;;;8.34;79.24;99572.97;5039608;28;20220;-73
2021/05/22 02:33:15;;;;;;;2.00;1.00;;;;;;;8.37;79.00;99565.66;5040377;28;20203;-73
2021/05/22 02:35:42;;;;;;;3.37;0.90;;;;;;;8.39;78.83;99574.38;5035487;28;20265;-73
2021/05/22 02:38:10;;;;;;;3.77;1.17;;;;;;;8.42;79.01;99578.66;5033726;28;20174;-73
2021/05/22 02:40:37;;;;;;;3.00;0.93;;;;;;;8.46;78.73;99580.16;5016785;28;20176;-73
2021/05/22 02:43:08;;;;;;;2.27;0.90;;;;;;;8.43;79.53;99565.25;5033461;28;20198;-73
2021/05/22 02:45:35;;;;;;;1.63;1.10;;;;;;;8.44;79.42;99563.44;5033237;28;20177;-74
2021/05/22 02:48:02;;;;;;;2.50;1.10;;;;;;;8.48;79.33;99558.78;5033105;28;20217;-74
2021/05/22 02:50:28;;;;;;;3.03;1.00;;;;;;;8.45;79.82;99558.03;5033659;28;20176;-73
2021/05/22 02:52:54;;;;;;;2.90;0.90;;;;;;;8.49;79.79;99565.81;5016115;28;20262;-74
2021/05/22 02:55:20;;;;;;;2.20;1.00;;;;;;;8.47;80.21;99571.22;5034478;28;20164;-72
2021/05/22 02:57:46;;;;;;;2.93;1.30;;;;;;;8.48;79.63;99564.97;5033125;28;20177;-72
2021/05/22 03:00:12;;;;;;;2.20;1.20;;;;;;;8.45;80.10;99566.00;5032839;28;20175;-73
2021/05/22 03:02:38;;;;;;;4.50;1.30;;;;;;;8.52;80.51;99568.28;5016190;28;20211;-73
2021/05/22 03:05:05;;;;;;;5.63;1.40;;;;;;;8.53;81.07;99570.81;5032863;28;20164;-73
2021/05/22 03:07:31;;;;;;;2.93;1.30;;;;;;;8.50;81.55;99575.50;5032650;28;20190;-73
2021/05/22 03:09:56;;;;;;;3.00;1.30;;;;;;;8.56;82.02;99575.13;5016164;28;20176;-73
2021/05/22 03:12:26;;;;;;;2.17;1.23;;;;;;;8.49;82.19;99577.31;5015929;28;20188;-73
2021/05/22 03:14:51;;;;;;;2.83;1.67;;;;;;;8.48;82.42;99572.09;5032652;28;20226;-74
2021/05/22 03:17:17;;;;;;;3.27;1.40;;;;;;;8.44;82.84;99566.97;5032564;28;20176;-73
2021/05/22 03:19:42;;;;;;;3.23;1.20;;;;;;;8.45;83.01;99562.50;5015981;28;20168;-73
2021/05/22 03:22:08;;;;;;;4.03;1.43;;;;;;;8.45;83.57;99571.31;5015417;28;20513;-73
2021/05/22 03:24:33;;;;;;;2.27;1.40;;;;;;;8.33;84.05;99589.84;5033556;28;20172;-74
2021/05/22 03:26:58;;;;;;;4.27;1.60;;;;;;;8.32;84.40;99589.00;5016121;28;20258;-74
2021/05/22 03:29:23;;;;;;;4.73;1.50;;;;;;;8.29;84.86;99589.19;5033595;28;20649;-74
2021/05/22 03:31:49;;;;;;;2.87;1.70;;;;;;;8.31;85.15;99586.44;5015983;28;20196;-74
2021/05/22 03:34:14;;;;;;;1.73;1.40;;;;;;;8.34;85.09;99583.59;5033417;28;20199;-74
2021/05/22 03:36:39;;;;;;;4.87;1.67;;;;;;;8.42;85.08;99586.63;5034051;28;20183;-73
2021/05/22 03:39:05;;;;;;;4.53;1.63;;;;;;;8.50;85.00;99580.81;5032625;28;20175;-74
2021/05/22 03:41:30;;;;;;;3.87;1.47;;;;;;;8.57;84.94;99574.19;5032915;28;20258;-74
2021/05/22 03:43:56;;;;;;;2.87;1.40;;;;;;;8.68;83.81;99571.66;5033560;28;20222;-75
2021/05/22 03:46:21;;;;;;;4.30;1.50;;;;;;;8.66;84.33;99571.75;5033774;28;20196;-75
2021/05/22 03:48:46;;;;;;;3.07;1.47;;;;;;;8.65;84.94;99577.19;5033577;28;20180;-74
2021/05/22 03:53:39;;;;;;;3.10;1.70;;;;;;;8.66;85.27;99592.19;5054638;22;20620;-71
2021/05/22 03:56:04;;;;;;;6.00;1.90;;;;;;;8.69;85.21;99592.84;5033676;28;20184;-71
2021/05/22 03:58:30;;;;;;;4.60;2.10;;;;;;;8.88;84.31;99594.28;5032282;28;20172;-70
2021/05/22 04:00:55;;;;;;;2.13;1.60;;;;;;;8.74;84.88;99593.41;5033115;28;20179;-70
2021/05/22 04:03:21;;;;;;;6.27;1.90;;;;;;;8.79;84.68;99590.44;5032998;28;20687;-69
2021/05/22 04:05:47;;;;;;;4.47;2.13;;;;;;;8.88;84.17;99597.81;5033166;28;20672;-70
2021/05/22 04:08:12;;;;;;;7.17;2.07;;;;;;;8.86;84.89;99590.88;5015415;28;20172;-70
2021/05/22 04:10:38;;;;;;;4.17;2.03;;;;;;;8.91;84.68;99589.63;5033196;28;20263;-71
2021/05/22 04:13:03;;;;;;;2.50;2.10;;;;;;;8.93;84.82;99590.41;5015297;28;20200;-71
2021/05/22 04:15:28;;;;;;;3.57;1.90;;;;;;;8.98;84.42;99603.41;5033176;28;20186;-72
2021/05/22 04:17:53;;;;;;;3.80;1.87;;;;;;;9.13;84.01;99597.06;5033008;28;20168;-71
2021/05/22 04:20:19;;;;;;;4.00;2.20;;;;;;;9.07;84.37;99602.78;5015472;28;20208;-72
2021/05/22 04:22:44;;;;;;;3.70;2.17;;;;;;;9.32;83.17;99596.69;5032849;28;20188;-71
2021/05/22 04:25:10;;;;;;;3.77;1.90;;;;;;;9.26;83.65;99597.09;5015352;28;20184;-72
2021/05/22 04:27:35;;;;;;;6.57;2.40;;;;;;;9.33;83.17;99603.72;5031799;28;20180;-71
2021/05/22 04:30:01;;;;;;;5.00;2.40;;;;;;;9.43;82.46;99603.94;5033321;28;20229;-71
2021/05/22 04:32:26;;;;;;;4.60;1.97;;;;;;;9.33;82.96;99601.06;5032766;28;20533;-71
2021/05/22 04:34:51;;;;;;;6.70;2.13;;;;;;;9.47;82.89;99595.66;5036595;28;20188;-71
2021/05/22 04:37:17;;;;;;;8.87;2.27;;;;;;;9.55;81.91;99595.97;5035505;28;20183;-71
2021/05/22 04:39:42;;;;;;;10.10;2.63;;;;;;;9.58;80.93;99590.44;5036694;28;20172;-71
2021/05/22 04:42:07;;;;;;;4.03;2.23;;;;;;;9.48;81.18;99591.19;5036572;28;20671;-71
2021/05/22 04:44:32;;;;;;;5.03;2.10;;;;;;;9.62;80.71;99588.41;5037142;28;20207;-71
2021/05/22 04:46:58;;;;;;;6.53;2.30;;;;;;;9.61;80.54;99587.56;5035440;28;20620;-71
2021/05/22 04:49:23;;;;;;;4.67;2.17;;;;;;;9.66;80.62;99603.22;5036683;28;20176;-71
2021/05/22 04:51:48;;;;;;;4.77;1.93;;;;;;;9.63;80.63;99596.28;5036538;28;20211;-71
2021/05/22 04:54:16;;;;;;;6.43;2.00;;;;;;;9.67;80.03;99600.47;5036553;28;20653;-71
2021/05/22 04:56:41;;;;;;;5.60;1.80;;;;;;;9.77;79.78;99602.50;5036719;28;20226;-71
2021/05/22 04:59:06;;;;;;;6.83;1.93;;;;;;;9.79;79.49;99601.44;5035081;28;20216;-72
2021/05/22 05:01:32;;;;;;;6.47;2.10;;;;;;;9.89;78.77;99606.97;5035340;28;20263;-71
2021/05/22 05:03:57;;;;;;;5.37;1.80;;;;;;;9.91;78.58;99605.91;5036692;28;20172;-72
2021/05/22 05:06:22;;;;;;;4.10;1.80;;;;;;;10.17;78.23;99600.59;5036053;28;20595;-72
2021/05/22 05:08:48;;;;;;;4.47;1.90;;;;;;;10.09;77.72;99603.78;5036252;28;20649;-72
2021/05/22 05:11:13;;;;;;;2.57;1.43;;;;;;;10.11;77.78;99607.19;5035300;28;20183;-71
2021/05/22 05:13:39;;;;;;;4.97;1.73;;;;;;;10.05;78.41;99606.78;5034887;28;20192;-72
2021/05/22 05:16:04;;;;;;;4.40;1.83;;;;;;;10.14;77.46;99606.97;5035088;28;20462;-72
2021/05/22 05:18:30;;;;;;;3.67;1.60;;;;;;;10.40;76.72;99606.97;5036068;28;20271;-72
2021/05/22 05:20:55;;;;;;;5.50;1.73;;;;;;;10.29;76.32;99602.41;5017991;28;20180;-72
2021/05/22 05:23:22;;;;;;;4.43;1.83;;;;;;;10.29;76.06;99605.91;5034696;28;20188;-72
2021/05/22 05:25:47;;;;;;;5.00;1.90;;;;;;;10.34;76.54;99598.44;5034735;28;20172;-72
2021/05/22 05:28:13;;;;;;;5.80;1.80;;;;;;;10.62;75.17;99597.31;5036358;28;20191;-72
2021/05/22 05:30:38;;;;;;;4.57;1.53;;;;;;;10.51;74.78;99586.56;5034962;28;20191;-72
2021/05/22 05:33:03;;;;;;;6.13;1.87;;;;;;;10.48;75.59;99583.28;5034602;28;20193;-72
2021/05/22 05:35:29;;;;;;;4.97;1.70;;;;;;;10.47;74.20;99576.25;5036099;28;20176;-72
2021/05/22 05:37:54;;;;;;;7.07;1.80;;;;;;;10.52;74.28;99587.44;5036039;28;20176;-72
2021/05/22 05:40:20;;;;;;;4.10;1.47;;;;;;;10.66;73.29;99608.63;5036124;28;20177;-72
2021/05/22 05:42:49;;;;;;;6.10;1.93;;;;;;;10.69;73.62;99602.19;5017732;28;20710;-71
2021/05/22 05:45:15;;;;;;;4.20;1.60;;;;;;;10.68;73.61;99598.69;5034041;28;20175;-72
2021/05/22 05:47:40;;;;;;;5.67;1.50;;;;;;;10.92;72.97;99588.88;5035669;28;20176;-72
2021/05/22 05:50:06;;;;;;;5.30;1.57;;;;;;;11.23;72.20;99597.28;5036909;28;20176;-72
2021/05/22 05:52:31;;;;;;;4.67;1.77;;;;;;;11.49;70.91;99588.13;5035061;28;20711;-72
2021/05/22 05:54:58;;;;;;;4.03;1.70;;;;;;;11.83;69.11;99597.13;5035319;28;20181;-72
2021/05/22 05:57:23;;;;;;;5.67;1.57;;;;;;;11.74;68.42;99602.31;5034537;28;20183;-72
2021/05/22 05:59:48;;;;;;;5.87;1.87;;;;;;;12.15;67.48;99599.09;5035709;28;20181;-72
2021/05/22 06:02:13;;;;;;;9.00;2.60;;;;;;;12.48;63.90;99599.09;5035274;28;20188;-72
2021/05/22 06:04:39;;;;;;;4.30;1.50;;;;;;;12.54;64.43;99600.44;5035033;28;20541;-73
2021/05/22 06:07:04;;;;;;;7.13;1.60;;;;;;;12.68;64.17;99600.19;5033891;28;20636;-72
2021/05/22 06:09:29;;;;;;;5.63;1.77;;;;;;;12.76;62.73;99603.09;5035328;28;20180;-72
2021/05/22 06:11:55;;;;;;;5.47;1.97;;;;;;;12.71;63.19;99610.66;5033712;28;20669;-72
2021/05/22 06:14:32;;;;;;;5.80;1.47;;;;;;;12.85;63.43;99612.19;5033690;28;20188;-72
2021/05/22 06:16:58;;;;;;;4.17;1.47;;;;;;;12.75;64.04;99609.41;5034136;28;20247;-72
2021/05/22 06:19:23;;;;;;;6.33;1.63;;;;;;;12.75;64.84;99606.75;5033818;28;20210;-73
2021/05/22 06:21:48;;;;;;;3.97;2.00;;;;;;;12.80;64.10;99599.19;5035249;28;20271;-73
2021/05/22 06:24:14;;;;;;;6.57;1.90;;;;;;;12.97;62.73;99595.09;5035127;28;20253;-72
2021/05/22 06:26:39;;;;;;;6.10;1.73;;;;;;;13.26;63.25;99590.06;5034986;28;20176;-72
2021/05/22 06:29:04;;;;;;;4.30;1.40;;;;;;;13.08;62.85;99581.69;5035523;28;20621;-72
2021/05/22 06:31:30;;;;;;;6.10;1.43;;;;;;;13.02;62.48;99597.44;5033535;28;20703;-70
2021/05/22 06:33:55;;;;;;;5.80;2.10;;;;;;;12.98;62.38;99598.63;5034875;28;20227;-72
2021/05/22 06:36:20;;;;;;;6.40;1.50;;;;;;;13.05;60.47;99591.81;5034447;28;20176;-71
2021/05/22 06:38:46;;;;;;;4.57;1.50;;;;;;;12.69;62.30;99590.34;5016989;28;20663;-71
2021/05/22 06:41:11;;;;;;;4.27;1.57;;;;;;;13.20;59.69;99579.00;5033495;28;20177;-71
2021/05/22 06:43:36;;;;;;;3.77;1.43;;;;;;;12.56;61.65;99589.59;5034484;28;20238;-71
2021/05/22 06:48:39;;;;;;;6.37;1.30;;;;;;;12.74;62.33;99588.13;5034729;28;20179;-73
2021/05/22 06:51:05;;;;;;;4.30;1.30;;;;;;;13.03;61.91;99588.44;5034738;28;20620;-72
2021/05/22 06:53:30;;;;;;;2.80;1.10;;;;;;;13.26;61.13;99583.84;5033955;28;20254;-72
2021/05/22 06:55:57;;;;;;;3.90;1.40;;;;;;;12.65;63.82;99587.06;5032374;28;20529;-72
2021/05/22 06:58:22;;;;;;;5.40;1.90;;;;;;;12.46;64.98;99600.19;5033016;28;20259;-72
2021/05/22 07:00:47;;;;;;;6.90;1.53;;;;;;;12.80;63.38;99603.69;5016304;28;20208;-72
2021/05/22 07:03:13;;;;;;;6.37;1.50;;;;;;;12.36;65.77;99604.59;5034122;28;20211;-72
2021/05/22 07:05:38;;;;;;;6.47;1.30;;;;;;;12.35;66.81;99602.91;5034796;28;20187;-71
2021/05/22 07:08:04;;;;;;;2.67;1.47;;;;;;;12.49;65.62;99602.63;5034250;28;20172;-72
2021/05/22 07:10:30;;;;;;;6.67;1.90;;;;;;;12.53;66.23;99596.91;5034252;28;20259;-72
2021/05/22 07:12:55;;;;;;;6.10;2.03;;;;;;;12.85;65.09;99590.78;5034029;28;20698;-73
2021/05/22 07:15:21;;;;;;;4.47;1.60;;;;;;;13.21;63.25;99583.38;5034114;28;20200;-74
2021/05/22 07:17:47;;;;;;;5.37;1.70;;;;;;;13.24;62.67;99583.97;5034073;28;20246;-72
2021/05/22 07:20:13;;;;;;;5.30;1.50;;;;;;;13.74;59.15;99598.47;5033853;28;20169;-73
2021/05/22 07:22:38;;;;;;;3.93;1.30;;;;;;;13.75;60.65;99591.25;5032425;28;20603;-72
2021/05/22 07:25:04;;;;;;;5.13;2.03;;;;;;;13.40;62.66;99595.13;5032889;28;20183;-72
2021/05/22 07:27:34;;;;;;;5.13;1.87;;;;;;;13.50;60.36;99607.75;5032536;28;20176;-73
2021/05/22 07:30:00;;;;;;;4.40;1.40;;;;;;;13.26;60.86;99595.41;5032744;28;20176;-72
2021/05/22 07:32:25;;;;;;;7.17;1.37;;;;;;;12.91;60.72;99600.13;5032160;28;20604;-72
2021/05/22 07:34:50;;;;;;;8.73;2.50;;;;;;;13.34;59.45;99597.44;5032905;28;20636;-73
2021/05/22 07:37:15;;;;;;;2.60;1.10;;;;;;;12.69;61.17;99604.56;5032533;28;20172;-73
2021/05/22 07:39:41;;;;;;;6.30;2.13;;;;;;;12.74;60.20;99605.03;5033730;28;20179;-73
2021/05/22 07:42:06;;;;;;;6.40;1.00;;;;;;;12.27;61.31;99613.34;5033947;28;20746;-72
2021/05/22 07:44:31;;;;;;;3.20;1.27;;;;;;;12.59;60.43;99608.94;5032390;28;20222;-74
2021/05/22 07:46:57;;;;;;;4.13;1.20;;;;;;;12.39;60.61;99609.69;5033533;28;20291;-72
2021/05/22 07:49:22;;;;;;;6.73;1.47;;;;;;;12.49;60.11;99610.66;5033743;28;20176;-71
2021/05/22 07:51:47;;;;;;;6.70;1.60;;;;;;;12.87;59.71;99604.03;5033381;28;20211;-70
2021/05/22 07:54:13;;;;;;;6.13;1.33;;;;;;;12.65;60.18;99615.66;5033849;28;20196;-71
2021/05/22 07:56:39;;;;;;;8.40;1.40;;;;;;;13.08;58.36;99607.63;5032600;28;20211;-72
2021/05/22 07:59:04;;;;;;;5.33;1.73;;;;;;;12.71;60.17;99605.28;5032752;28;20243;-73
2021/05/22 08:01:32;;;;;;;3.07;1.10;;;;;;;12.88;60.21;99603.06;5033450;28;20164;-73
2021/05/22 08:03:57;;;;;;;5.53;1.27;;;;;;;12.91;60.83;99600.13;5015613;28;20295;-73
2021/05/22 08:06:23;;;;;;;4.53;1.20;;;;;;;12.56;61.83;99606.50;5032387;28;20536;-71
2021/05/22 08:08:48;;;;;;;4.73;1.40;;;;;;;13.15;59.68;99600.78;5032019;28;20172;-72
2021/05/22 08:11:13;;;;;;;4.97;1.40;;;;;;;12.77;60.78;99610.16;5031843;28;20176;-71
2021/05/22 08:13:40;;;;;;;4.80;1.20;;;;;;;12.67;61.25;99617.22;5031835;28;20238;-71
2021/05/22 08:16:05;;;;;;;3.47;1.17;;;;;;;12.46;62.78;99608.22;5031823;28;20242;-71
2021/05/22 08:18:30;;;;;;;4.47;1.47;;;;;;;12.66;62.97;99603.97;5031841;28;20636;-71
2021/05/22 08:20:56;;;;;;;6.67;1.23;;;;;;;12.08;65.31;99614.78;5033056;28;20173;-71
2021/05/22 08:23:22;;;;;;;4.73;1.37;;;;;;;12.41;64.01;99613.94;5032456;28;20184;-72
2021/05/22 08:25:47;;;;;;;5.17;1.70;;;;;;;12.75;62.69;99608.56;5031237;28;20283;-71
2021/05/22 08:28:20;;;;;;;6.77;1.27;;;;;;;12.56;62.13;99619.88;5033376;28;20200;-72
2021/05/22 08:30:45;;;;;;;4.23;1.10;;;;;;;12.74;61.20;99606.88;5032588;28;20157;-72
2021/05/22 08:33:11;;;;;;;6.07;1.20;;;;;;;12.74;61.13;99607.72;5015256;28;20568;-71
2021/05/22 08:35:36;;;;;;;6.50;2.27;;;;;;;13.15;61.20;99614.19;5033354;28;20184;-71
2021/05/22 08:38:02;;;;;;;5.00;2.07;;;;;;;13.63;59.85;99608.41;5032928;28;20640;-71
2021/05/22 08:40:29;;;;;;;3.07;1.10;;;;;;;12.47;61.35;99607.25;5015515;28;20172;-72
2021/05/22 08:42:54;;;;;;;3.73;1.30;;;;;;;12.69;62.37;99607.25;5032516;28;20723;-72
2021/05/22 08:45:21;;;;;;;4.60;1.40;;;;;;;13.29;60.00;99592.47;5038275;28;20173;-71
2021/05/22 08:47:48;;;;;;;5.90;1.57;;;;;;;13.20;60.60;99601.28;5047940;28;20203;-72
2021/05/22 08:50:14;;;;;;;4.30;1.23;;;;;;;13.54;59.22;99590.44;5034159;28;20177;-71
2021/05/22 08:52:39;;;;;;;6.13;1.53;;;;;;;13.24;60.13;99596.53;5032550;28;20265;-71
2021/05/22 08:55:06;;;;;;;4.70;1.50;;;;;;;13.59;59.70;99593.56;5047418;28;20267;-71
2021/05/22 08:57:32;;;;;;;6.27;1.50;;;;;;;13.79;58.48;99598.09;5033971;28;20667;-72
2021/05/22 08:59:57;;;;;;;3.77;1.73;;;;;;;13.72;59.31;99588.84;5015597;28;20180;-72
2021/05/22 09:02:24;;;;;;;3.83;1.70;;;;;;;13.04;60.69;99596.34;5015124;28;20196;-71
2021/05/22 09:05:21;;;;;;;6.70;1.67;;;;;;;13.39;59.49;99590.75;5032254;28;20655;-72
2021/05/22 09:07:49;;;;;;;4.77;1.20;;;;;;;13.89;57.52;99598.13;5032688;28;20164;-72
2021/05/22 09:10:28;;;;;;;3.97;1.47;;;;;;;13.94;57.13;99593.22;5032635;28;20172;-72
2021/05/22 09:13:01;;;;;;;6.03;1.40;;;;;;;13.67;57.98;99585.72;5032529;28;20192;-72
2021/05/22 09:15:29;;;;;;;4.57;1.57;;;;;;;13.91;56.63;99586.28;5014951;28;20522;-72
2021/05/22 09:17:56;;;;;;;5.50;1.50;;;;;;;13.37;58.34;99587.31;5031534;28;20172;-72
2021/05/22 09:20:28;;;;;;;4.67;1.20;;;;;;;13.42;58.73;99590.50;5034024;28;20295;-72
2021/05/22 09:22:55;;;;;;;3.17;1.20;;;;;;;13.31;58.68;99577.13;5034756;28;20200;-72
2021/05/22 09:25:20;;;;;;;3.30;1.10;;;;;;;13.56;58.62;99581.28;5036305;28;20172;-71
2021/05/22 09:27:45;;;;;;;5.97;1.53;;;;;;;14.07;57.67;99581.28;5036272;28;20180;-71
2021/05/22 09:30:13;;;;;;;4.77;1.20;;;;;;;13.96;57.19;99602.00;5034614;28;20173;-71
2021/05/22 09:32:39;;;;;;;5.87;1.40;;;;;;;14.31;57.46;99578.31;5034408;28;20266;-72
2021/05/22 09:35:06;;;;;;;5.07;1.33;;;;;;;14.58;54.27;99587.63;5034843;28;20671;-71
2021/05/22 09:37:58;;;;;;;4.77;1.07;;;;;;;14.53;54.42;99571.94;5034676;28;20592;-71
2021/05/22 09:40:26;;;;;;;3.40;1.13;;;;;;;14.67;53.58;99574.22;5035592;28;20188;-72
2021/05/22 09:42:52;;;;;;;4.77;1.47;;;;;;;15.09;53.69;99573.16;5018418;28;20546;-73
2021/05/22 09:45:27;;;;;;;4.10;1.30;;;;;;;14.65;52.65;99576.19;5034845;28;20180;-71
2021/05/22 09:47:55;;;;;;;5.00;1.13;;;;;;;14.67;53.85;99584.13;5034165;28;20191;-71
2021/05/22 09:50:34;;;;;;;4.60;0.97;;;;;;;14.72;53.05;99581.84;5018058;28;20180;-72
2021/05/22 09:53:00;;;;;;;5.37;1.40;;;;;;;14.77;53.02;99581.44;5035154;28;20207;-71
2021/05/22 09:55:25;;;;;;;5.83;1.20;;;;;;;14.91;53.55;99575.69;5034404;28;20195;-71
2021/05/22 09:57:53;;;;;;;3.93;1.70;;;;;;;15.91;50.69;99577.06;5034130;28;20172;-71
2021/05/22 10:00:20;;;;;;;2.73;0.97;;;;;;;16.26;49.18;99589.00;5035293;28;20184;-71
2021/05/22 10:02:56;;;;;;;3.73;1.50;;;;;;;16.69;49.30;99574.09;5033940;28;20287;-71
2021/05/22 10:05:35;;;;;;;3.80;1.00;;;;;;;16.37;47.57;99567.31;5035153;28;20200;-71
2021/05/22 10:08:03;;;;;;;4.97;0.70;;;;;;;16.21;46.70;99562.53;5034111;28;20214;-71
2021/05/22 10:10:41;;;;;;;4.90;1.20;;;;;;;15.95;47.99;99572.25;5034006;28;20266;-71
2021/05/22 10:13:09;;;;;;;5.07;0.83;;;;;;;16.17;44.03;99552.22;5033841;28;20246;-71
2021/05/22 10:15:34;;;;;;;4.47;1.10;;;;;;;16.27;43.51;99559.25;5033587;28;20177;-72
2021/05/22 10:18:00;;;;;;;2.37;0.90;;;;;;;15.81;46.68;99556.59;5033603;28;20684;-71
2021/05/22 10:20:25;;;;;;;2.80;1.00;;;;;;;15.89;46.22;99584.44;5033566;28;20259;-71
2021/05/22 10:22:51;;;;;;;2.87;0.70;;;;;;;16.07;43.43;99537.97;5034710;28;20568;-72
2021/05/22 10:25:17;;;;;;;4.33;1.07;;;;;;;16.50;42.29;99550.81;5034605;28;20644;-72
2021/05/22 10:27:42;;;;;;;4.13;1.10;;;;;;;16.53;43.24;99542.41;5034653;28;20187;-71
2021/05/22 10:30:09;;;;;;;3.50;0.90;;;;;;;17.14;42.96;99545.31;5034720;28;20193;-71
2021/05/22 10:32:37;;;;;;;2.67;1.07;;;;;;;17.05;43.70;99550.75;5032864;28;20200;-71
2021/05/22 10:35:23;;;;;;;7.63;1.43;;;;;;;16.59;43.66;99560.66;5033478;28;20180;-71
2021/05/22 10:37:50;;;;;;;3.63;0.90;;;;;;;15.85;45.66;99558.81;5035629;28;20194;-71
2021/05/22 10:40:20;;;;;;;4.80;1.40;;;;;;;15.64;45.82;99555.50;5036145;28;20172;-71
2021/05/22 10:42:51;;;;;;;4.30;0.90;;;;;;;15.94;45.51;99559.78;5034080;28;20744;-71
2021/05/22 10:45:38;;;;;;;1.60;0.70;;;;;;;16.10;43.46;99569.97;5032926;28;20262;-70
2021/05/22 10:48:28;;;;;;;4.10;1.07;;;;;;;15.83;44.04;99573.41;5033353;28;20183;-70
2021/05/22 10:50:54;;;;;;;3.33;1.03;;;;;;;14.72;45.96;99581.00;5034248;28;20190;-69
2021/05/22 10:53:34;;;;;;;5.67;1.10;;;;;;;14.14;47.74;99575.41;5032690;28;20204;-69
2021/05/22 10:56:07;;;;;;;5.87;0.80;;;;;;;14.76;47.39;99560.94;5032902;28;20160;-69
2021/05/22 10:58:33;;;;;;;5.10;0.90;;;;;;;16.26;44.64;99565.63;5034205;28;20229;-70
2021/05/22 11:01:24;;;;;;;3.87;0.80;;;;;;;17.54;43.50;99557.47;5034113;28;20636;-70
2021/05/22 11:04:08;;;;;;;3.90;0.90;;;;;;;17.28;43.71;99562.78;5034340;28;20705;-70
2021/05/22 11:06:44;;;;;;;4.53;0.90;;;;;;;17.17;44.07;99565.72;5033767;28;20177;-72
2021/05/22 11:09:27;;;;;;;3.37;1.10;;;;;;;20.01;38.46;99563.38;5016085;28;20184;-72
2021/05/22 11:12:04;;;;;;;2.80;0.80;;;;;;;19.28;38.10;99558.81;5033894;28;20192;-72
2021/05/22 11:14:42;;;;;;;4.70;0.80;;;;;;;18.96;40.40;99559.63;5016052;28;20279;-72
2021/05/22 11:17:33;;;;;;;5.90;1.30;;;;;;;20.28;37.75;99557.56;5034825;28;20338;-72
2021/05/22 11:19:59;;;;;;;3.57;0.87;;;;;;;20.59;36.25;99570.34;5033318;28;20196;-71
2021/05/22 11:22:25;;;;;;;2.17;0.70;;;;;;;20.54;37.16;99560.03;5033419;28;20219;-72
2021/05/22 11:25:07;;;;;;;2.83;0.83;;;;;;;21.29;35.02;99558.66;5032294;28;20176;-72
2021/05/22 11:27:44;;;;;;;2.97;1.10;;;;;;;20.39;35.65;99556.31;5032940;28;20243;-72
2021/05/22 11:30:17;;;;;;;3.57;1.03;;;;;;;19.12;38.82;99556.09;5033946;28;20180;-71
2021/05/22 11:32:59;;;;;;;2.43;1.00;;;;;;;21.07;35.99;99577.38;5032267;28;20188;-72
2021/05/22 11:35:31;;;;;;;4.07;1.20;;;;;;;19.96;38.29;99563.03;5033808;28;20215;-71
2021/05/22 11:38:14;;;;;;;5.70;1.53;;;;;;;20.18;37.76;99565.03;5033327;28;20260;-72
2021/05/22 11:40:39;;;;;;;3.97;1.13;;;;;;;19.97;37.01;99567.44;5033390;28;20579;-72
2021/05/22 11:43:14;;;;;;;1.57;0.70;;;;;;;20.06;37.12;99565.56;5033141;28;20188;-72